createdAt,value
2023-02-25T00:02:04.731Z,15.37
2023-02-25T00:04:31.856Z,15.53
2023-02-25T00:06:58.601Z,15.13
2023-02-25T00:09:25.144Z,16.37
2023-02-25T00:11:51.778Z,15.83
2023-02-25T00:14:18.417Z,15.27
2023-02-25T00:16:45.141Z,15.37
2023-02-25T00:19:13.483Z,15.30
2023-02-25T00:21:40.037Z,15.50
2023-02-25T00:24:16.063Z,14.20
2023-02-25T00:26:43.586Z,14.70
2023-02-25T00:29:10.204Z,13.43
2023-02-25T00:31:36.806Z,14.13
2023-02-25T00:34:03.516Z,14.17
2023-02-25T00:36:30.052Z,13.87
2023-02-25T00:38:57.698Z,13.07
2023-02-25T00:41:29.027Z,13.50
2023-02-25T00:44:00.584Z,12.27
2023-02-25T00:46:28.695Z,11.33
2023-02-25T00:48:55.635Z,12.23
2023-02-25T00:51:24.733Z,13.23
2023-02-25T00:53:52.961Z,11.90
2023-02-25T00:56:20.504Z,12.13
2023-02-25T00:58:48.966Z,12.80
2023-02-25T01:01:27.678Z,12.23
2023-02-25T01:03:57.407Z,12.43
2023-02-25T01:06:25.650Z,12.83
2023-02-25T01:08:52.444Z,11.63
2023-02-25T01:11:27.066Z,12.40
2023-02-25T01:13:54.326Z,12.57
2023-02-25T01:16:23.835Z,12.83
2023-02-25T01:18:55.680Z,12.40
2023-02-25T01:21:25.944Z,12.20
2023-02-25T01:24:01.164Z,11.70
2023-02-25T01:26:29.596Z,12.17
2023-02-25T01:28:56.558Z,12.50
2023-02-25T01:31:29.644Z,11.97
2023-02-25T01:34:01.321Z,12.67
2023-02-25T01:36:28.941Z,12.53
2023-02-25T01:38:56.844Z,13.43
2023-02-25T01:41:24.703Z,11.77
2023-02-25T01:44:06.429Z,11.80
2023-02-25T01:46:33.206Z,11.43
2023-02-25T01:49:00.836Z,10.90
2023-02-25T01:51:28.402Z,11.17
2023-02-25T01:53:57.412Z,11.20
2023-02-25T01:56:26.051Z,10.87
2023-02-25T01:58:53.454Z,10.93
2023-02-25T02:01:22.291Z,10.93
2023-02-25T02:03:50.092Z,12.13
2023-02-25T02:06:21.867Z,11.27
2023-02-25T02:08:49.784Z,13.33
2023-02-25T02:11:17.134Z,13.93
2023-02-25T02:13:47.019Z,12.30
2023-02-25T02:16:31.704Z,13.40
2023-02-25T02:19:10.034Z,12.37
2023-02-25T02:22:00.746Z,12.20
2023-02-25T02:25:01.830Z,12.33
2023-02-25T02:27:34.317Z,13.03
2023-02-25T02:30:18.914Z,13.10
2023-02-25T02:32:58.874Z,12.00
2023-02-25T02:35:51.625Z,12.47
2023-02-25T02:38:18.125Z,13.40
2023-02-25T02:40:57.888Z,12.73
2023-02-25T02:43:33.671Z,13.53
2023-02-25T02:46:22.709Z,13.93
2023-02-25T02:49:27.119Z,13.27
2023-02-25T02:51:58.852Z,13.50
2023-02-25T02:54:29.984Z,13.73
2023-02-25T02:56:58.125Z,14.57
2023-02-25T02:59:34.871Z,13.17
2023-02-25T03:02:06.633Z,13.13
2023-02-25T03:04:36.508Z,12.90
2023-02-25T03:07:08.173Z,13.17
2023-02-25T03:09:46.815Z,12.20
2023-02-25T03:12:13.466Z,13.50
2023-02-25T03:14:40.208Z,13.60
2023-02-25T03:17:10.491Z,14.70
2023-02-25T03:19:46.082Z,14.07
2023-02-25T03:22:18.488Z,14.67
2023-02-25T03:24:50.428Z,14.17
2023-02-25T03:27:39.169Z,14.20
2023-02-25T03:30:14.869Z,14.53
2023-02-25T03:32:44.552Z,14.43
2023-02-25T03:35:12.355Z,13.97
2023-02-25T03:37:39.973Z,14.10
2023-02-25T03:40:12.287Z,14.60
2023-02-25T03:42:42.904Z,14.27
2023-02-25T03:45:10.996Z,15.67
2023-02-25T03:47:38.395Z,14.87
2023-02-25T03:50:35.595Z,15.03
2023-02-25T03:53:02.218Z,15.90
2023-02-25T03:55:29.388Z,15.47
2023-02-25T03:57:56.692Z,15.33
2023-02-25T04:00:26.367Z,14.33
2023-02-25T04:02:53.083Z,16.33
2023-02-25T04:05:21.730Z,16.33
2023-02-25T04:07:48.490Z,16.20
2023-02-25T04:10:16.375Z,15.53
2023-02-25T04:12:43.169Z,15.53
2023-02-25T04:15:10.426Z,15.40
2023-02-25T04:17:37.209Z,16.20
2023-02-25T04:20:05.509Z,15.33
2023-02-25T04:22:33.388Z,15.40
2023-02-25T04:25:00.433Z,15.77
2023-02-25T04:27:27.373Z,16.40
2023-02-25T04:29:54.081Z,16.10
2023-02-25T04:32:20.896Z,17.60
2023-02-25T04:34:47.556Z,16.50
2023-02-25T04:37:14.353Z,17.00
2023-02-25T04:39:41.531Z,17.80
2023-02-25T04:42:08.200Z,17.23
2023-02-25T04:44:35.244Z,17.67
2023-02-25T04:47:01.965Z,18.50
2023-02-25T04:49:28.578Z,18.23
2023-02-25T04:51:55.493Z,17.23
2023-02-25T04:54:22.218Z,16.17
2023-02-25T04:56:49.019Z,17.50
2023-02-25T04:59:16.184Z,16.40
2023-02-25T05:01:43.173Z,17.13
2023-02-25T05:04:09.966Z,17.50
2023-02-25T05:06:36.763Z,16.43
2023-02-25T05:09:04.001Z,17.60
2023-02-25T05:11:30.689Z,17.07
2023-02-25T05:13:57.651Z,17.03
2023-02-25T05:16:25.399Z,17.90
2023-02-25T05:18:52.479Z,19.17
2023-02-25T05:21:22.236Z,18.50
2023-02-25T05:23:50.474Z,16.37
2023-02-25T05:26:21.884Z,17.80
2023-02-25T05:28:52.846Z,18.30
2023-02-25T05:31:20.034Z,17.80
2023-02-25T05:33:47.714Z,17.67
2023-02-25T05:36:15.837Z,18.67
2023-02-25T05:38:42.623Z,17.53
2023-02-25T05:41:10.136Z,17.57
2023-02-25T05:43:38.410Z,17.07
2023-02-25T05:46:09.144Z,17.40
2023-02-25T05:48:35.739Z,17.63
2023-02-25T05:51:08.207Z,16.63
2023-02-25T05:53:35.166Z,17.40
2023-02-25T05:56:06.506Z,17.87
2023-02-25T05:58:34.707Z,16.87
2023-02-25T06:01:13.518Z,16.47
2023-02-25T06:03:41.721Z,18.03
2023-02-25T06:06:10.275Z,17.87
2023-02-25T06:08:36.852Z,17.10
2023-02-25T06:11:06.049Z,18.97
2023-02-25T06:13:33.190Z,17.80
2023-02-25T06:16:03.385Z,18.33
2023-02-25T06:18:29.979Z,18.47
2023-02-25T06:21:02.813Z,18.87
2023-02-25T06:23:29.407Z,19.67
2023-02-25T06:25:58.513Z,19.47
2023-02-25T06:28:25.040Z,19.40
2023-02-25T06:30:51.766Z,20.73
2023-02-25T06:33:18.452Z,20.33
2023-02-25T06:35:45.068Z,21.00
2023-02-25T06:38:11.600Z,20.23
2023-02-25T06:40:38.500Z,20.87
2023-02-25T06:43:05.087Z,19.87
2023-02-25T06:45:31.672Z,21.07
2023-02-25T06:47:58.732Z,21.90
2023-02-25T06:50:25.304Z,22.87
2023-02-25T06:52:51.799Z,21.53
2023-02-25T06:55:18.383Z,22.07
2023-02-25T06:57:44.927Z,20.80
2023-02-25T07:00:12.043Z,22.00
2023-02-25T07:02:38.568Z,21.90
2023-02-25T07:05:05.561Z,22.97
2023-02-25T07:07:32.380Z,21.33
2023-02-25T07:09:58.883Z,21.40
2023-02-25T07:12:25.408Z,23.03
2023-02-25T07:14:51.917Z,22.83
2023-02-25T07:17:18.511Z,24.17
2023-02-25T07:19:45.351Z,21.80
2023-02-25T08:55:43.862Z,18.47
2023-02-25T08:58:10.328Z,17.07
2023-02-25T09:00:36.851Z,18.33
2023-02-25T09:03:03.806Z,15.17
2023-02-25T09:05:30.369Z,16.10
2023-02-25T09:07:59.020Z,15.03
2023-02-25T09:10:25.714Z,15.10
2023-02-25T09:12:53.038Z,15.10
2023-02-25T09:15:21.733Z,15.87
2023-02-25T09:17:48.300Z,15.20
2023-02-25T09:20:17.994Z,14.23
2023-02-25T09:22:44.594Z,15.60
2023-02-25T09:25:11.185Z,14.23
2023-02-25T09:27:37.882Z,13.97
2023-02-25T09:30:04.714Z,13.70
2023-02-25T09:32:31.488Z,13.67
2023-02-25T09:35:00.122Z,12.23
2023-02-25T09:37:27.796Z,12.03
2023-02-25T09:39:54.908Z,11.30
2023-02-25T09:42:24.102Z,10.63
2023-02-25T09:44:57.569Z,10.57
2023-02-25T09:47:53.182Z,10.57
2023-02-25T09:50:23.753Z,11.03
2023-02-25T09:53:22.688Z,11.47
2023-02-25T09:55:51.949Z,9.43
2023-02-25T09:58:49.953Z,8.50
2023-02-25T10:01:24.912Z,6.07
2023-02-25T10:04:18.783Z,6.63
2023-02-25T10:06:50.538Z,6.40
2023-02-25T10:09:42.825Z,6.00
2023-02-25T10:12:30.926Z,6.20
2023-02-25T10:15:21.104Z,5.87
2023-02-25T10:18:04.698Z,5.73
2023-02-25T10:20:53.256Z,5.70
2023-02-25T10:23:38.542Z,3.93
2023-02-25T10:26:21.185Z,3.50
2023-02-25T10:28:53.142Z,6.63
2023-02-25T10:31:21.342Z,3.80
2023-02-25T10:33:50.595Z,3.07
2023-02-25T10:36:19.287Z,3.27
2023-02-25T10:38:48.035Z,3.00
2023-02-25T10:41:14.895Z,3.57
2023-02-25T10:43:42.252Z,3.90
2023-02-25T10:46:19.182Z,4.37
2023-02-25T10:48:55.759Z,5.87
2023-02-25T10:51:22.762Z,5.57
2023-02-25T10:53:58.662Z,5.17
2023-02-25T10:56:27.759Z,5.33
2023-02-25T10:59:07.632Z,5.83
2023-02-25T11:01:42.260Z,4.83
2023-02-25T11:04:14.755Z,4.73
2023-02-25T11:06:43.544Z,5.50
2023-02-25T11:09:19.387Z,6.00
2023-02-25T11:11:57.159Z,6.47
2023-02-25T11:14:35.586Z,6.17
2023-02-25T11:17:17.259Z,6.10
2023-02-25T11:19:58.923Z,6.60
2023-02-25T11:22:38.054Z,6.27
2023-02-25T11:25:08.168Z,8.27
2023-02-25T11:27:40.221Z,5.03
2023-02-25T11:30:14.699Z,5.30
2023-02-25T11:32:53.900Z,5.67
2023-02-25T11:35:28.788Z,6.47
2023-02-25T11:37:59.877Z,6.37
2023-02-25T11:40:36.234Z,6.70
2023-02-25T11:43:05.522Z,7.20
2023-02-25T11:45:38.606Z,7.10
2023-02-25T11:48:14.903Z,7.03
2023-02-25T11:51:09.788Z,7.30
2023-02-25T11:54:08.479Z,6.53
2023-02-25T11:56:37.982Z,7.60
2023-02-25T11:59:12.796Z,7.27
2023-02-25T12:01:50.996Z,6.60
2023-02-25T12:04:54.868Z,6.80
2023-02-25T12:08:12.857Z,4.67
2023-02-25T12:11:01.600Z,5.50
2023-02-25T12:13:50.650Z,5.30
2023-02-25T12:16:45.533Z,5.50
2023-02-25T12:19:39.551Z,4.10
2023-02-25T12:22:27.532Z,2.70
2023-02-25T12:25:10.551Z,3.00
2023-02-25T12:28:01.645Z,3.60
2023-02-25T12:30:36.619Z,4.10
2023-02-25T12:33:32.990Z,4.13
2023-02-25T12:36:34.863Z,5.20
2023-02-25T12:39:14.268Z,4.57
2023-02-25T12:42:09.701Z,4.13
2023-02-25T12:44:42.300Z,4.37
2023-02-25T12:47:44.080Z,3.77
2023-02-25T12:50:31.175Z,4.47
2023-02-25T12:53:06.470Z,4.90
2023-02-25T12:55:54.526Z,4.70
2023-02-25T12:58:40.103Z,4.67
2023-02-25T13:01:39.145Z,5.37
2023-02-25T13:04:24.731Z,6.30
2023-02-25T13:07:28.768Z,5.60
2023-02-25T13:10:14.099Z,5.43
2023-02-25T13:13:06.161Z,5.50
2023-02-25T13:15:53.983Z,6.70
2023-02-25T13:18:48.617Z,6.70
2023-02-25T13:21:29.675Z,7.33
2023-02-25T13:24:20.710Z,5.40
2023-02-25T13:26:53.400Z,5.00
2023-02-25T13:29:57.814Z,3.10
2023-02-25T13:32:56.686Z,2.60
2023-02-25T13:35:44.392Z,2.30
2023-02-25T13:39:06.742Z,2.90
2023-02-25T13:41:35.702Z,2.63
2023-02-25T13:44:52.619Z,3.70
2023-02-25T13:47:46.764Z,4.70
2023-02-25T13:50:34.987Z,3.93
2023-02-25T13:53:36.716Z,4.07
2023-02-25T13:56:23.652Z,7.00
2023-02-25T13:59:14.810Z,6.20
2023-02-25T14:01:49.578Z,3.27
2023-02-25T14:04:49.729Z,2.70
2023-02-25T14:07:51.675Z,2.20
2023-02-25T14:10:33.070Z,2.43
2023-02-25T14:13:39.823Z,2.57
2023-02-25T14:16:12.002Z,2.50
2023-02-25T14:18:44.641Z,3.17
2023-02-25T14:21:38.015Z,2.73
2023-02-25T14:24:10.628Z,3.50
2023-02-25T14:27:04.552Z,3.63
2023-02-25T14:30:03.222Z,3.60
2023-02-25T14:32:48.725Z,4.47
2023-02-25T14:35:37.929Z,4.73
2023-02-25T14:38:33.609Z,4.83
2023-02-25T14:41:23.620Z,4.53
2023-02-25T14:43:52.659Z,4.13
2023-02-25T14:46:33.206Z,4.20
2023-02-25T14:49:17.927Z,4.13
2023-02-25T14:52:03.583Z,4.10
2023-02-25T14:54:54.967Z,4.03
2023-02-25T14:58:07.342Z,4.50
2023-02-25T15:00:33.999Z,5.27
2023-02-25T15:03:17.440Z,5.83
2023-02-25T15:05:54.221Z,5.67
2023-02-25T15:08:52.636Z,5.57
2023-02-25T15:11:42.722Z,6.23
2023-02-25T15:14:12.246Z,5.73
2023-02-25T15:16:51.122Z,5.77
2023-02-25T15:19:29.906Z,5.77
2023-02-25T15:22:25.266Z,7.33
2023-02-25T15:24:54.651Z,13.57
2023-02-25T15:27:56.691Z,22.53
2023-02-25T15:30:25.162Z,15.07
2023-02-25T15:32:53.944Z,8.57
2023-02-25T15:35:35.254Z,8.63
2023-02-25T15:38:06.878Z,9.30
2023-02-25T15:40:33.760Z,8.73
2023-02-25T15:43:39.821Z,8.37
2023-02-25T15:46:06.370Z,7.20
2023-02-25T15:48:35.179Z,8.50
2023-02-25T15:51:03.353Z,8.53
2023-02-25T15:53:36.822Z,9.23
2023-02-25T15:56:03.305Z,8.97
2023-02-25T15:58:30.295Z,8.67
2023-02-25T16:01:06.471Z,7.10
2023-02-25T16:03:35.957Z,8.80
2023-02-25T16:06:07.062Z,11.40
2023-02-25T16:09:01.504Z,14.10
2023-02-25T16:11:35.753Z,8.23
2023-02-25T16:14:17.550Z,10.43
2023-02-25T16:16:52.740Z,8.73
2023-02-25T16:19:21.528Z,9.20
2023-02-25T16:22:09.327Z,9.03
2023-02-25T16:24:37.134Z,7.73
2023-02-25T16:27:25.842Z,8.07
2023-02-25T16:30:23.660Z,7.50
2023-02-25T16:33:09.222Z,8.20
2023-02-25T16:36:06.852Z,8.53
2023-02-25T16:38:56.343Z,9.17
2023-02-25T16:41:30.352Z,9.50
2023-02-25T16:44:03.418Z,10.77
2023-02-25T16:46:35.140Z,10.43
2023-02-25T16:49:03.744Z,9.13
2023-02-25T16:51:33.283Z,10.50
2023-02-25T16:54:06.245Z,11.47
2023-02-25T16:56:33.091Z,9.93
2023-02-25T16:59:14.909Z,9.63
2023-02-25T17:01:50.308Z,11.87
2023-02-25T17:04:36.436Z,11.37
2023-02-25T17:07:07.587Z,12.77
2023-02-25T17:09:34.765Z,10.37
2023-02-25T17:12:03.127Z,9.03
2023-02-25T17:14:30.915Z,9.07
2023-02-25T17:16:57.743Z,10.13
2023-02-25T17:19:24.907Z,10.23
2023-02-25T17:21:55.513Z,9.03
2023-02-25T17:24:26.998Z,10.27
2023-02-25T17:26:54.022Z,10.90
2023-02-25T17:29:21.174Z,10.77
2023-02-25T17:31:53.561Z,10.17
2023-02-25T17:34:28.054Z,12.27
2023-02-25T17:36:56.087Z,11.23
2023-02-25T17:39:22.748Z,11.97
2023-02-25T17:41:49.701Z,12.43
2023-02-25T17:44:44.667Z,12.30
2023-02-25T17:47:18.172Z,12.77
2023-02-25T17:49:44.826Z,11.40
2023-02-25T17:52:23.600Z,9.73
2023-02-25T17:55:04.266Z,7.80
2023-02-25T17:57:32.378Z,8.10
2023-02-25T18:00:27.019Z,8.07
2023-02-25T18:03:19.643Z,7.90
2023-02-25T18:05:54.524Z,7.47
2023-02-25T18:08:25.305Z,8.33
2023-02-25T18:11:02.280Z,7.57
2023-02-25T18:13:35.252Z,8.50
2023-02-25T18:16:41.187Z,8.83
2023-02-25T18:19:25.208Z,9.03
2023-02-25T18:21:52.811Z,9.43
2023-02-25T18:24:33.190Z,10.40
2023-02-25T18:27:30.652Z,10.43
2023-02-25T18:30:19.456Z,10.83
2023-02-25T18:32:46.936Z,10.90
2023-02-25T18:35:14.242Z,12.10
2023-02-25T18:37:41.588Z,11.70
2023-02-25T18:40:15.868Z,14.50
2023-02-25T18:42:42.642Z,16.17
2023-02-25T18:45:17.011Z,15.53
2023-02-25T18:47:44.019Z,16.77
2023-02-25T18:50:11.409Z,15.67
2023-02-25T18:52:38.259Z,14.67
2023-02-25T18:55:06.433Z,15.63
2023-02-25T18:57:33.051Z,16.17
2023-02-25T18:59:59.537Z,17.03
2023-02-25T19:02:35.250Z,16.37
2023-02-25T19:05:02.920Z,16.37
2023-02-25T19:07:31.816Z,17.20
2023-02-25T19:09:58.835Z,17.37
2023-02-25T19:12:27.398Z,16.23
2023-02-25T19:15:00.271Z,15.40
2023-02-25T19:17:28.702Z,14.57
2023-02-25T19:19:56.150Z,13.03
2023-02-25T19:22:23.061Z,12.87
2023-02-25T19:24:50.698Z,11.83
2023-02-25T19:27:28.351Z,10.57
2023-02-25T19:29:57.868Z,11.20
2023-02-25T19:32:25.502Z,9.67
2023-02-25T19:34:52.386Z,9.80
2023-02-25T19:37:20.715Z,8.53
2023-02-25T19:39:47.197Z,8.80
2023-02-25T19:42:13.919Z,7.33
2023-02-25T19:44:40.610Z,7.23
2023-02-25T19:47:08.025Z,6.70
2023-02-25T19:49:34.684Z,6.30
2023-02-25T19:52:01.558Z,6.90
2023-02-25T19:54:28.011Z,6.67
2023-02-25T19:56:54.909Z,6.03
2023-02-25T19:59:21.477Z,6.57
2023-02-25T20:01:48.015Z,6.70
2023-02-25T20:04:14.740Z,6.73
2023-02-25T20:06:41.369Z,6.10
2023-02-25T20:09:09.275Z,7.57
2023-02-25T20:11:35.929Z,6.57
2023-02-25T20:14:03.991Z,5.83
2023-02-25T20:16:31.153Z,6.10
2023-02-25T20:18:58.009Z,5.80
2023-02-25T20:21:26.333Z,5.43
2023-02-25T20:23:53.170Z,5.30
2023-02-25T20:26:23.106Z,6.03
2023-02-25T20:28:52.253Z,5.30
2023-02-25T20:31:19.179Z,5.87
2023-02-25T20:33:48.989Z,5.60
2023-02-25T20:36:30.507Z,5.17
2023-02-25T20:39:16.817Z,5.43
2023-02-25T20:41:44.868Z,5.80
2023-02-25T20:44:12.072Z,5.50
2023-02-25T20:46:39.832Z,5.20
2023-02-25T20:49:08.149Z,5.93
2023-02-25T20:51:34.930Z,5.47
2023-02-25T20:54:04.034Z,4.90
2023-02-25T20:56:32.101Z,5.03
2023-02-25T20:58:59.151Z,4.93
2023-02-25T21:01:25.850Z,5.23
2023-02-25T21:03:52.867Z,4.80
2023-02-25T21:06:21.792Z,5.40
2023-02-25T21:08:48.820Z,5.40
2023-02-25T21:11:15.620Z,4.93
2023-02-25T21:13:42.215Z,5.40
2023-02-25T21:16:09.155Z,4.90
2023-02-25T21:18:35.894Z,4.53
2023-02-25T21:21:06.065Z,4.40
2023-02-25T21:23:32.872Z,3.90
2023-02-25T21:26:00.348Z,3.60
2023-02-25T21:28:28.173Z,3.73
2023-02-25T21:31:21.295Z,3.90
2023-02-25T21:33:47.849Z,3.50
2023-02-25T21:36:14.602Z,3.90
2023-02-25T21:38:41.498Z,3.70
2023-02-25T21:41:13.379Z,3.57
2023-02-25T21:43:40.756Z,3.50
2023-02-25T21:46:11.521Z,3.57
2023-02-25T21:48:39.224Z,3.70
2023-02-25T21:51:06.539Z,3.70
2023-02-25T21:53:33.831Z,4.00
2023-02-25T21:56:09.163Z,4.50
2023-02-25T21:58:35.936Z,4.33
2023-02-25T22:01:16.111Z,4.63
2023-02-25T22:03:43.560Z,4.30
2023-02-25T22:06:10.096Z,4.27
2023-02-25T22:08:39.455Z,4.33
2023-02-25T22:11:11.614Z,4.03
2023-02-25T22:13:38.237Z,3.47
2023-02-25T22:16:04.969Z,3.97
2023-02-25T22:18:31.677Z,4.27
2023-02-25T22:21:16.276Z,3.63
2023-02-25T22:23:43.560Z,3.33
2023-02-25T22:26:15.654Z,3.40
2023-02-25T22:28:43.339Z,3.33
2023-02-25T22:31:12.573Z,3.13
2023-02-25T22:33:39.983Z,3.37
2023-02-25T22:36:07.438Z,3.70
2023-02-25T22:38:38.857Z,4.03
2023-02-25T22:41:10.247Z,3.73
2023-02-25T22:43:36.961Z,3.97
2023-02-25T22:46:08.850Z,4.23
2023-02-25T22:48:36.867Z,4.13
2023-02-25T22:51:04.441Z,3.73
2023-02-25T22:53:31.094Z,4.07
2023-02-25T22:56:04.746Z,3.83
2023-02-25T22:58:31.562Z,4.00
2023-02-25T23:00:58.245Z,3.80
2023-02-25T23:03:25.037Z,4.50
2023-02-25T23:05:54.590Z,3.70
2023-02-25T23:08:21.800Z,4.00
2023-02-25T23:10:48.366Z,3.77
2023-02-25T23:13:15.015Z,4.10
2023-02-25T23:15:42.178Z,3.67
2023-02-25T23:18:09.642Z,3.87
2023-02-25T23:20:38.414Z,4.00
2023-02-25T23:23:06.375Z,3.07
2023-02-25T23:25:35.244Z,3.60
2023-02-25T23:28:02.087Z,3.10
2023-02-25T23:30:28.828Z,3.57
2023-02-25T23:32:57.390Z,3.10
2023-02-25T23:35:24.426Z,2.80
2023-02-25T23:37:51.196Z,2.70
2023-02-25T23:40:17.853Z,2.93
2023-02-25T23:42:45.011Z,2.97
2023-02-25T23:45:13.028Z,3.07
2023-02-25T23:47:42.651Z,2.40
2023-02-25T23:50:15.070Z,2.80
2023-02-25T23:52:43.430Z,2.90
2023-02-25T23:55:11.568Z,2.20
2023-02-25T23:57:38.608Z,2.90
